首页
METAR-TAF:

METAR-TAF

机场 :

哈尔滨太平国际机场

哈尔滨, 中华人民共和国

纬度: 45-45N, 经度: 126-46E, 海拔: 143米

当前天气观测

该预报发布于54分钟前的23:00 UTC
风速19节,风向南转西南
温度 26°C
湿度 34%
气压 999 hPa
能见度10公里或以上
1500米以下无云,无积雨云

METAR: ZYHB 242300Z 21010MPS CAVOK 26/09 Q0999 NOSIG

时间: 07:54 (23:54 UTC)

预报

该预报发布于4小时和49分钟前的19:05 UTC
预报有效从25日的 00点(UTC)到 25日的 24点(UTC)
风速21节,风向西南,有时为31节阵风
能見度: 6000
散云层高于3000英尺
成为
从 25日的 10点(UTC)到 25日的 11点(UTC)
风速10节,风向南转西南

TAF: ZYHB 241905Z 2500/2524 22011G16MPS 6000 SCT030 TX32/2506Z TN17/2520Z BECMG 2510/2511 20005MPS

超过4000个机场的气象观测和天气预报(METAR&TAF报告)。

可查询的气象台以黄色和红色小点在地图上表示。

将鼠标移到小点上方,可查看气象台名称。

然后点击查看天气观测和预报。

如需切换地图:点击带黑十字的绿色按钮放大地图;点击带横线的绿色按钮缩小地图;或者点击绿色箭头查看邻近地区的地图。


METAR-TAF: